Alder Bend, New York
Current Conditions -  °F | °C
As of 9:53 PM on Friday 19 Dec 2014 (Local Time) from KPBG Reporting Station
Clear Clear  
Wind Chill: 13°   Ceiling: Unl
Heat Index: 13°   Visibility: 10mi
Dew Point: 10°   Wind: 3mph
Humidity: 88%   Direction: 310°NW
Pressure: 30.22"   Gusts: NA
Location:  44.8543°N, 73.663°W
Report Text: KPBG 200253Z AUTO 31003KT 10SM CLR M11/M12 A3022 RMK AO2 SLP239 I1000 I3000 T11061122 51009
Loading
Personal Weather Stations






























Interactive Weather Map New forecast layout! Learn more

10-Day Weather Forecast

Advertisements
Track Severe Weather on mobile